createdAt,value
2016-09-16T00:11:56.470Z,60.35
2016-09-16T00:26:56.481Z,62.37
2016-09-16T00:41:56.476Z,60.62
2016-09-16T00:56:56.541Z,63.87
2016-09-16T01:11:58.988Z,62.37
2016-09-16T01:26:56.500Z,62.37
2016-09-16T01:42:03.099Z,64.93
2016-09-16T01:57:01.619Z,65.4
2016-09-16T02:11:58.603Z,65.18
2016-09-16T02:26:56.497Z,65.46
2016-09-16T02:41:56.515Z,67.49
2016-09-16T02:56:56.537Z,67.28
2016-09-16T03:12:01.166Z,67.15
2016-09-16T03:26:56.531Z,67.83
2016-09-16T03:42:01.564Z,67.73
2016-09-16T03:57:07.325Z,68.47
2016-09-16T04:12:01.200Z,67.76
2016-09-16T04:27:03.143Z,69.7
2016-09-16T04:41:56.541Z,69.25
2016-09-16T04:56:56.537Z,67.89
2016-09-16T05:11:56.546Z,69.06
2016-09-16T05:27:01.191Z,68.21
2016-09-16T05:42:00.774Z,69.91
2016-09-16T05:57:01.623Z,72.17
2016-09-16T06:12:09.092Z,72.16
2016-09-16T06:27:07.419Z,74.91
2016-09-16T06:42:01.596Z,75.56
2016-09-16T06:56:56.578Z,76.26
2016-09-16T07:11:56.572Z,78.44
2016-09-16T07:27:01.507Z,79.42
2016-09-16T07:42:03.218Z,78.42
2016-09-16T07:56:59.052Z,79.25
2016-09-16T08:11:56.570Z,78.65
2016-09-16T08:26:56.566Z,76.78
2016-09-16T08:42:01.167Z,74.17
2016-09-16T08:57:01.200Z,71.98
2016-09-16T09:12:02.872Z,70.63
2016-09-16T09:27:13.595Z,67
2016-09-16T09:42:02.786Z,64.25
2016-09-16T09:56:56.574Z,64.71
2016-09-16T10:11:56.600Z,62.13
2016-09-16T10:27:01.628Z,61.71
2016-09-16T10:34:36.016Z,61.88
2016-09-16T10:41:56.576Z,61.25
2016-09-16T10:52:06.587Z,60.68
2016-09-16T11:06:58.837Z,59.2
2016-09-16T11:10:32.678Z,59.55
2016-09-16T11:25:32.090Z,60.15
2016-09-16T11:40:25.700Z,61.21
2016-09-16T11:55:36.431Z,62
2016-09-16T12:10:30.757Z,62.2
2016-09-16T12:25:30.647Z,62.92
2016-09-16T12:40:25.733Z,61.89
2016-09-16T12:55:29.480Z,62.57
2016-09-16T16:28:21.205Z,62.2
2016-09-16T16:58:31.080Z,64.68
2016-09-16T17:13:16.407Z,66.45
2016-09-16T17:28:14.420Z,67.44
2016-09-16T17:43:16.508Z,72.08
2016-09-16T17:58:20.510Z,72.66
2016-09-16T18:13:16.413Z,73.52
2016-09-16T18:28:14.406Z,74.59
2016-09-16T18:43:20.765Z,75.65
2016-09-16T18:58:14.420Z,75.83
2016-09-16T19:13:16.516Z,77.06
2016-09-16T19:28:29.060Z,77.75
2016-09-16T19:58:16.564Z,78.06
2016-09-16T20:13:14.440Z,78.88
2016-09-16T20:28:14.428Z,79.27
2016-09-16T20:43:18.538Z,78.44
2016-09-16T20:58:18.594Z,78.83
2016-09-16T21:13:16.466Z,80.08
2016-09-16T21:28:18.548Z,79.9
2016-09-16T21:43:16.455Z,80.69
2016-09-16T21:58:16.464Z,80.19
2016-09-16T22:13:14.486Z,79.1
2016-09-16T22:28:14.446Z,80.93
2016-09-16T22:43:16.559Z,77.61
2016-09-16T22:58:14.450Z,78.66
2016-09-16T23:13:20.800Z,78.11
2016-09-16T23:28:14.456Z,78.22
2016-09-16T23:43:14.453Z,78.21
2016-09-16T23:58:16.557Z,79.61
